YSB weather

Sudbury Airport
Sudbury, Ontario, Canada

Public forecast

Using degrees Celsius for public forecast. Weather courtesy of forecast.io.

METAR (pilot weather report)

Retrieved 2019/04/20 15:00 UTC (58 minutes ago):

CYSB 201500Z 03010KT 20SM FEW210 06/M01 A2988 RMK CI2 SLP134

TAF (pilot weather forecast)

Retrieved 2019/04/20 14:39 UTC (1 hour ago):

TAF CYSB 201338Z 2014/2102 04012G22KT P6SM SCT220 FM210000 04010KT P6SM SCT030 TEMPO 2100/2102 BKN030 RMK NXT FCST BY 202000Z